createdAt,value
2019-04-30T00:00:45.303Z,13.00
2019-04-30T00:03:20.624Z,13.00
2019-04-30T00:05:53.359Z,13.10
2019-04-30T00:08:17.582Z,13.10
2019-04-30T00:10:45.421Z,12.50
2019-04-30T00:13:17.823Z,13.10
2019-04-30T00:16:02.115Z,13.20
2019-04-30T00:18:30.842Z,13.00
2019-04-30T00:20:59.303Z,13.20
2019-04-30T00:23:30.704Z,13.20
2019-04-30T00:25:58.197Z,13.20
2019-04-30T00:28:26.051Z,13.10
2019-04-30T00:30:56.033Z,13.00
2019-04-30T00:33:25.152Z,13.00
2019-04-30T00:35:55.145Z,13.70
2019-04-30T00:38:22.456Z,12.80
2019-04-30T00:40:50.419Z,12.60
2019-04-30T00:43:41.976Z,13.10
2019-04-30T00:46:07.411Z,12.60
2019-04-30T00:48:35.697Z,13.10
2019-04-30T00:51:07.467Z,12.50
2019-04-30T00:53:33.590Z,13.00
2019-04-30T00:56:01.545Z,13.10
2019-04-30T00:58:30.372Z,13.10
2019-04-30T01:01:18.216Z,12.40
2019-04-30T01:03:50.464Z,13.00
2019-04-30T01:06:24.624Z,12.50
2019-04-30T01:08:48.854Z,13.00
2019-04-30T01:11:16.860Z,12.70
2019-04-30T01:13:50.231Z,12.90
2019-04-30T01:16:14.067Z,13.00
2019-04-30T01:18:42.144Z,12.70
2019-04-30T01:21:18.483Z,12.40
2019-04-30T01:23:51.831Z,12.60
2019-04-30T01:26:35.066Z,13.10
2019-04-30T01:29:03.047Z,12.70
2019-04-30T01:31:52.975Z,12.90
2019-04-30T01:34:20.940Z,12.70
2019-04-30T01:36:52.212Z,12.40
2019-04-30T01:39:19.529Z,12.80
2019-04-30T01:41:48.802Z,12.90
2019-04-30T01:44:36.398Z,12.80
2019-04-30T01:47:04.355Z,12.70
2019-04-30T01:49:41.692Z,12.90
2019-04-30T01:52:02.072Z,12.90
2019-04-30T01:54:29.995Z,12.90
2019-04-30T01:57:16.086Z,12.10
2019-04-30T02:00:10.954Z,12.90
2019-04-30T02:02:40.868Z,12.60
2019-04-30T02:05:08.913Z,12.20
2019-04-30T02:07:38.853Z,13.00
2019-04-30T02:10:06.279Z,13.20
2019-04-30T02:12:33.906Z,12.20
2019-04-30T02:15:01.545Z,12.90
2019-04-30T02:17:29.726Z,12.80
2019-04-30T02:20:18.514Z,12.30
2019-04-30T02:22:48.489Z,12.70
2019-04-30T02:25:16.345Z,12.40
2019-04-30T02:27:44.301Z,12.90
2019-04-30T02:30:12.159Z,12.80
2019-04-30T02:32:40.460Z,12.90
2019-04-30T02:35:46.972Z,13.30
2019-04-30T02:38:21.895Z,13.00
2019-04-30T02:40:50.056Z,12.70
2019-04-30T02:43:39.739Z,13.00
2019-04-30T02:46:09.472Z,12.70
2019-04-30T02:48:39.378Z,12.30
2019-04-30T02:51:06.640Z,12.80
2019-04-30T02:54:11.482Z,13.00
2019-04-30T02:56:40.677Z,12.50
2019-04-30T02:59:10.368Z,13.00
2019-04-30T03:01:40.028Z,13.10
2019-04-30T03:04:09.634Z,13.80
2019-04-30T03:06:40.235Z,12.90
2019-04-30T03:09:10.389Z,13.00
2019-04-30T03:11:40.273Z,12.90
2019-04-30T03:14:07.006Z,12.90
2019-04-30T03:16:52.673Z,13.20
2019-04-30T03:19:40.357Z,13.00
2019-04-30T03:22:12.899Z,13.70
2019-04-30T03:24:42.786Z,13.00
2019-04-30T03:27:30.203Z,13.10
2019-04-30T03:30:00.083Z,12.40
2019-04-30T03:32:35.688Z,13.00
2019-04-30T03:34:56.492Z,12.50
2019-04-30T03:37:23.991Z,13.10
2019-04-30T03:39:51.584Z,11.90
2019-04-30T03:42:19.884Z,12.70
2019-04-30T03:44:49.622Z,13.00
2019-04-30T03:47:19.954Z,11.90
2019-04-30T03:50:06.091Z,13.10
2019-04-30T03:52:34.453Z,12.70
2019-04-30T03:55:02.856Z,13.80
2019-04-30T03:57:51.888Z,11.70
2019-04-30T04:00:30.083Z,12.90
2019-04-30T04:02:59.751Z,12.90
2019-04-30T04:05:41.495Z,13.10
2019-04-30T04:08:29.385Z,12.40
2019-04-30T04:11:19.937Z,12.50
2019-04-30T04:13:49.545Z,12.50
2019-04-30T04:16:19.345Z,13.20
2019-04-30T04:18:46.033Z,13.50
2019-04-30T04:21:33.044Z,13.00
2019-04-30T04:24:00.863Z,12.80
2019-04-30T04:26:29.866Z,13.50
2019-04-30T04:28:59.380Z,12.40
2019-04-30T04:31:29.696Z,12.70
2019-04-30T04:33:56.429Z,13.00
2019-04-30T04:36:24.247Z,13.10
2019-04-30T04:39:11.261Z,12.40
2019-04-30T04:41:39.919Z,12.90
2019-04-30T04:44:09.965Z,12.30
2019-04-30T04:46:37.029Z,12.20
2019-04-30T04:49:04.581Z,13.70
2019-04-30T04:51:38.720Z,13.00
2019-04-30T04:54:21.235Z,13.00
2019-04-30T04:56:52.878Z,12.50
2019-04-30T04:59:20.125Z,13.70
2019-04-30T05:01:48.959Z,12.90
2019-04-30T05:04:16.468Z,13.00
2019-04-30T05:06:43.998Z,13.50
2019-04-30T05:09:11.473Z,12.90
2019-04-30T05:11:58.646Z,13.10
2019-04-30T05:14:28.781Z,13.00
2019-04-30T05:16:58.682Z,13.10
2019-04-30T05:19:32.804Z,11.90
2019-04-30T05:22:00.767Z,13.20
2019-04-30T05:24:28.734Z,13.50
2019-04-30T05:26:56.178Z,11.60
2019-04-30T05:29:23.673Z,13.00
2019-04-30T05:31:51.212Z,13.10
2019-04-30T05:34:19.045Z,13.60
2019-04-30T05:36:48.839Z,11.70
2019-04-30T05:39:18.727Z,11.80
2019-04-30T05:41:49.084Z,13.20
2019-04-30T05:44:15.072Z,12.60
2019-04-30T05:46:43.235Z,13.00
2019-04-30T05:49:11.138Z,13.10
2019-04-30T05:51:59.386Z,12.10
2019-04-30T05:54:29.214Z,12.60
2019-04-30T05:56:59.490Z,12.10
2019-04-30T05:59:28.996Z,13.10
2019-04-30T06:02:16.133Z,12.90
2019-04-30T06:04:50.040Z,12.80
2019-04-30T06:07:18.887Z,13.40
2019-04-30T06:09:53.071Z,12.30
2019-04-30T06:12:41.603Z,13.20
2019-04-30T06:15:26.044Z,12.80
2019-04-30T06:18:00.907Z,13.70
2019-04-30T06:20:23.304Z,13.20
2019-04-30T06:22:52.187Z,12.60
2019-04-30T06:25:31.110Z,12.80
2019-04-30T06:27:49.436Z,13.10
2019-04-30T06:30:19.712Z,13.20
2019-04-30T06:33:06.148Z,13.10
2019-04-30T06:35:33.527Z,12.10
2019-04-30T06:38:00.914Z,13.10
2019-04-30T06:40:29.300Z,13.20
2019-04-30T06:43:00.896Z,13.30
2019-04-30T06:45:29.047Z,13.30
2019-04-30T06:48:16.727Z,13.30
2019-04-30T06:53:30.247Z,13.10
2019-04-30T06:56:03.776Z,13.30
2019-04-30T06:58:43.372Z,12.80
2019-04-30T07:01:32.938Z,13.20
2019-04-30T07:04:13.516Z,13.30
2019-04-30T07:06:44.003Z,12.20
2019-04-30T07:09:55.935Z,13.60
2019-04-30T07:16:05.894Z,13.10
2019-04-30T07:18:33.708Z,13.10
2019-04-30T07:21:01.732Z,14.60
2019-04-30T07:23:30.012Z,12.50
2019-04-30T07:26:19.695Z,13.60
2019-04-30T07:28:55.126Z,13.60
2019-04-30T07:31:22.048Z,12.90
2019-04-30T07:33:53.749Z,13.20
2019-04-30T07:36:22.715Z,13.60
2019-04-30T07:38:56.243Z,13.30
2019-04-30T07:41:20.263Z,13.70
2019-04-30T07:43:49.458Z,13.80
2019-04-30T07:46:23.750Z,13.30
2019-04-30T07:48:59.786Z,12.70
2019-04-30T07:54:12.808Z,13.60
2019-04-30T07:56:50.669Z,13.50
2019-04-30T07:59:30.184Z,13.80
2019-04-30T08:02:07.543Z,13.60
2019-04-30T08:04:55.928Z,13.30
2019-04-30T08:07:26.630Z,13.90
2019-04-30T08:09:55.789Z,13.40
2019-04-30T08:12:30.180Z,13.60
2019-04-30T08:14:55.071Z,14.00
2019-04-30T08:17:28.883Z,13.10
2019-04-30T08:19:58.632Z,13.20
2019-04-30T08:22:45.922Z,13.50
2019-04-30T08:25:18.794Z,13.40
2019-04-30T08:27:46.400Z,14.00
2019-04-30T08:30:23.962Z,14.00
2019-04-30T08:32:51.865Z,12.70
2019-04-30T08:35:21.495Z,13.90
2019-04-30T08:37:51.841Z,14.20
2019-04-30T08:40:23.184Z,13.90
2019-04-30T08:42:54.161Z,14.00
2019-04-30T08:45:25.162Z,13.90
2019-04-30T08:47:55.525Z,14.80
2019-04-30T08:50:26.207Z,13.40
2019-04-30T08:52:56.163Z,14.60
2019-04-30T08:55:30.808Z,14.00
2019-04-30T08:58:09.369Z,13.80
2019-04-30T09:00:30.884Z,14.00
2019-04-30T09:02:59.920Z,13.70
2019-04-30T09:05:50.176Z,14.80
2019-04-30T09:08:19.391Z,14.00
2019-04-30T09:10:48.904Z,14.60
2019-04-30T09:13:16.661Z,14.10
2019-04-30T09:15:44.386Z,14.10
2019-04-30T09:18:31.563Z,14.60
2019-04-30T09:21:05.999Z,14.10
2019-04-30T09:23:42.919Z,13.60
2019-04-30T09:26:01.887Z,15.50
2019-04-30T09:28:29.812Z,14.70
2019-04-30T09:30:58.626Z,14.10
2019-04-30T09:33:26.513Z,13.10
2019-04-30T09:35:54.306Z,14.00
2019-04-30T09:38:22.167Z,14.00
2019-04-30T09:40:50.722Z,13.00
2019-04-30T09:43:19.133Z,14.10
2019-04-30T09:45:46.943Z,14.10
2019-04-30T09:48:14.715Z,14.00
2019-04-30T09:51:02.485Z,14.20
2019-04-30T09:53:30.730Z,13.80
2019-04-30T09:55:59.651Z,14.10
2019-04-30T09:58:46.683Z,14.10
2019-04-30T10:01:14.377Z,14.60
2019-04-30T10:03:42.350Z,14.20
2019-04-30T10:06:10.305Z,14.10
2019-04-30T10:08:47.903Z,13.80
2019-04-30T10:11:26.213Z,13.30
2019-04-30T10:13:54.374Z,13.80
2019-04-30T10:16:54.879Z,14.10
2019-04-30T10:19:24.400Z,13.90
2019-04-30T10:22:11.895Z,15.20
2019-04-30T10:24:39.398Z,14.00
2019-04-30T10:27:13.422Z,13.80
2019-04-30T10:29:41.235Z,13.80
2019-04-30T10:32:30.151Z,14.20
2019-04-30T10:35:04.176Z,14.00
2019-04-30T10:37:31.777Z,13.20
2019-04-30T10:39:59.813Z,13.70
2019-04-30T10:42:28.873Z,14.50
2019-04-30T10:45:00.043Z,14.00
2019-04-30T10:47:45.462Z,14.60
2019-04-30T10:50:13.520Z,14.20
2019-04-30T10:52:42.781Z,14.70
2019-04-30T10:55:10.331Z,14.10
2019-04-30T10:57:39.585Z,14.60
2019-04-30T11:00:36.362Z,14.60
2019-04-30T11:03:16.325Z,14.50
2019-04-30T11:05:33.840Z,14.80
2019-04-30T11:08:01.728Z,14.20
2019-04-30T11:10:48.828Z,14.20
2019-04-30T11:13:16.516Z,14.60
2019-04-30T11:16:12.429Z,14.50
2019-04-30T11:18:33.305Z,14.00
2019-04-30T11:21:01.227Z,16.00
2019-04-30T11:23:29.723Z,14.70
2019-04-30T11:25:59.626Z,14.50
2019-04-30T11:28:27.930Z,13.80
2019-04-30T11:31:16.659Z,14.60
2019-04-30T11:34:04.364Z,14.40
2019-04-30T11:36:33.607Z,14.20
2019-04-30T11:39:02.905Z,15.00
2019-04-30T11:41:33.182Z,15.40
2019-04-30T11:43:59.966Z,14.50
2019-04-30T11:46:51.629Z,14.60
2019-04-30T11:49:32.097Z,14.40
2019-04-30T11:54:59.474Z,14.40
2019-04-30T11:57:26.303Z,14.40
2019-04-30T12:00:16.207Z,14.70
2019-04-30T12:02:44.234Z,14.90
2019-04-30T12:05:13.619Z,14.70
2019-04-30T12:07:48.328Z,14.70
2019-04-30T12:10:26.514Z,14.70
2019-04-30T12:12:58.687Z,15.50
2019-04-30T12:15:26.100Z,14.70
2019-04-30T12:17:53.500Z,14.70
2019-04-30T12:20:20.924Z,14.70
2019-04-30T12:22:49.315Z,14.80
2019-04-30T12:25:18.615Z,14.60
2019-04-30T12:27:48.659Z,14.70
2019-04-30T12:30:15.505Z,14.30
2019-04-30T12:32:42.999Z,14.70
2019-04-30T12:35:30.729Z,14.30
2019-04-30T12:40:43.359Z,14.40
2019-04-30T12:43:11.072Z,14.70
2019-04-30T12:46:04.913Z,13.40
2019-04-30T12:48:40.022Z,14.80
2019-04-30T12:51:27.553Z,14.80
2019-04-30T12:53:59.312Z,14.70
2019-04-30T12:56:32.698Z,14.80
2019-04-30T12:59:00.320Z,14.80
2019-04-30T13:01:31.763Z,15.10
2019-04-30T13:04:19.436Z,14.80
2019-04-30T13:06:48.666Z,14.50
2019-04-30T13:09:19.845Z,14.90
2019-04-30T13:11:48.236Z,14.80
2019-04-30T13:14:19.320Z,14.90
2019-04-30T13:16:46.240Z,15.40
2019-04-30T13:19:13.884Z,14.80
2019-04-30T13:21:43.939Z,14.20
2019-04-30T13:24:11.664Z,14.90
2019-04-30T13:26:39.748Z,14.70
2019-04-30T13:29:36.819Z,14.40
2019-04-30T13:32:04.884Z,14.40
2019-04-30T13:34:46.886Z,14.80
2019-04-30T13:37:14.561Z,14.70
2019-04-30T13:39:53.005Z,14.50
2019-04-30T13:42:35.560Z,13.80
2019-04-30T13:45:03.831Z,14.60
2019-04-30T13:47:31.498Z,14.60
2019-04-30T13:49:59.455Z,14.60
2019-04-30T13:52:26.644Z,13.60
2019-04-30T13:55:14.114Z,13.90
2019-04-30T13:57:42.057Z,14.70
2019-04-30T14:00:15.085Z,14.60
2019-04-30T14:03:13.382Z,14.30
2019-04-30T14:08:45.172Z,14.20
2019-04-30T14:11:32.198Z,14.60
2019-04-30T14:13:59.741Z,14.30
2019-04-30T14:16:47.076Z,14.60
2019-04-30T14:19:14.803Z,14.20
2019-04-30T14:21:42.412Z,14.60
2019-04-30T14:24:29.291Z,14.60
2019-04-30T14:26:58.943Z,14.20
2019-04-30T14:29:34.322Z,14.60
2019-04-30T14:32:01.861Z,14.40
2019-04-30T14:34:50.640Z,14.60
2019-04-30T14:40:05.266Z,14.60
2019-04-30T14:42:36.293Z,14.60
2019-04-30T14:45:33.219Z,14.60
2019-04-30T14:48:07.738Z,14.20
2019-04-30T14:50:36.038Z,14.50
2019-04-30T14:53:09.158Z,14.60
2019-04-30T14:56:08.517Z,14.40
2019-04-30T14:58:51.050Z,14.30
2019-04-30T15:01:24.507Z,14.40
2019-04-30T15:03:52.365Z,14.40
2019-04-30T15:06:39.411Z,14.30
2019-04-30T15:09:14.857Z,14.20
2019-04-30T15:12:05.253Z,13.90
2019-04-30T15:14:34.911Z,14.00
2019-04-30T15:17:05.255Z,14.30
2019-04-30T15:19:32.380Z,13.80
2019-04-30T15:22:20.963Z,14.40
2019-04-30T15:24:49.167Z,13.70
2019-04-30T15:27:19.818Z,14.40
2019-04-30T15:29:56.639Z,14.90
2019-04-30T15:32:18.650Z,14.20
2019-04-30T15:34:50.676Z,14.30
2019-04-30T15:37:21.949Z,14.10
2019-04-30T15:39:59.855Z,13.90
2019-04-30T15:42:32.941Z,13.80
2019-04-30T15:45:16.922Z,15.70
2019-04-30T15:47:58.523Z,14.30
2019-04-30T15:50:35.116Z,13.80
2019-04-30T15:53:02.885Z,14.30
2019-04-30T15:55:31.331Z,15.30
2019-04-30T15:58:15.224Z,14.30
2019-04-30T16:00:42.652Z,15.10
2019-04-30T16:03:16.892Z,13.30
2019-04-30T16:05:47.071Z,14.20
2019-04-30T16:08:39.013Z,14.30
2019-04-30T16:11:31.786Z,14.30
2019-04-30T16:14:18.900Z,14.30
2019-04-30T16:16:57.011Z,14.30
2019-04-30T16:19:24.620Z,13.60
2019-04-30T16:21:54.924Z,14.30
2019-04-30T16:24:22.551Z,14.30
2019-04-30T16:26:52.654Z,14.30
2019-04-30T16:29:19.728Z,13.00
2019-04-30T16:31:49.317Z,14.40
2019-04-30T16:34:16.301Z,14.30
2019-04-30T16:36:43.640Z,14.30
2019-04-30T16:39:11.232Z,14.20
2019-04-30T16:41:40.567Z,14.30
2019-04-30T16:44:09.190Z,14.30
2019-04-30T16:46:36.733Z,15.00
2019-04-30T16:49:04.179Z,14.20
2019-04-30T16:51:31.945Z,14.30
2019-04-30T16:53:59.448Z,14.20
2019-04-30T16:56:28.528Z,15.10
2019-04-30T16:58:59.506Z,14.10
2019-04-30T17:01:27.102Z,14.20
2019-04-30T17:03:59.011Z,13.60
2019-04-30T17:06:51.172Z,14.90
2019-04-30T17:09:29.688Z,13.50
2019-04-30T17:12:13.042Z,14.00
2019-04-30T17:14:41.413Z,14.00
2019-04-30T17:17:08.875Z,14.00
2019-04-30T17:19:36.252Z,14.10
2019-04-30T17:22:04.107Z,14.10
2019-04-30T17:24:31.245Z,14.00
2019-04-30T17:26:59.259Z,14.00
2019-04-30T17:29:26.419Z,14.90
2019-04-30T17:31:54.144Z,14.30
2019-04-30T17:34:21.592Z,14.00
2019-04-30T17:37:09.958Z,14.00
2019-04-30T17:39:40.823Z,13.40
2019-04-30T17:42:06.823Z,13.90
2019-04-30T17:44:34.175Z,13.60
2019-04-30T17:47:01.339Z,14.00
2019-04-30T17:49:28.667Z,14.70
2019-04-30T17:51:55.922Z,13.90
2019-04-30T17:54:23.183Z,14.00
2019-04-30T17:56:50.332Z,13.90
2019-04-30T17:59:17.839Z,14.40
2019-04-30T18:01:52.202Z,13.80
2019-04-30T18:04:22.045Z,14.30
2019-04-30T18:06:50.569Z,13.80
2019-04-30T18:09:19.326Z,13.70
2019-04-30T18:12:06.181Z,13.90
2019-04-30T18:14:35.511Z,13.40
2019-04-30T18:17:02.967Z,13.70
2019-04-30T18:19:45.343Z,13.60
2019-04-30T18:22:19.517Z,14.20
2019-04-30T18:25:13.152Z,14.30
2019-04-30T18:27:49.628Z,13.00
2019-04-30T18:30:21.187Z,13.80
2019-04-30T18:32:49.788Z,13.50
2019-04-30T18:35:20.022Z,13.20
2019-04-30T18:37:48.122Z,13.40
2019-04-30T18:40:16.168Z,13.40
2019-04-30T18:42:43.720Z,13.40
2019-04-30T18:45:11.558Z,13.40
2019-04-30T18:47:44.476Z,12.30
2019-04-30T18:50:11.883Z,13.10
2019-04-30T18:52:39.919Z,13.40
2019-04-30T18:55:09.244Z,13.40
2019-04-30T18:57:36.567Z,13.40
2019-04-30T19:00:09.838Z,13.30
2019-04-30T19:02:40.546Z,13.40
2019-04-30T19:05:16.140Z,12.70
2019-04-30T19:07:50.959Z,12.90
2019-04-30T19:10:28.580Z,13.40
2019-04-30T19:13:08.960Z,14.20
2019-04-30T19:16:18.535Z,13.40
2019-04-30T19:18:37.186Z,13.90
2019-04-30T19:21:04.906Z,13.40
2019-04-30T19:23:32.325Z,13.80
2019-04-30T19:25:59.745Z,13.30
2019-04-30T19:28:28.680Z,13.30
2019-04-30T19:30:58.292Z,13.30
2019-04-30T19:33:24.740Z,13.40
2019-04-30T19:35:51.761Z,13.30
2019-04-30T19:38:18.954Z,13.40
2019-04-30T19:41:05.518Z,13.30
2019-04-30T19:43:32.799Z,13.00
2019-04-30T19:46:00.134Z,13.30
2019-04-30T19:48:27.419Z,13.30
2019-04-30T19:51:14.769Z,13.50
2019-04-30T19:53:42.316Z,13.10
2019-04-30T19:56:09.878Z,13.70
2019-04-30T19:58:52.319Z,13.40
2019-04-30T20:01:06.836Z,13.40
2019-04-30T20:03:34.176Z,13.40
2019-04-30T20:06:22.192Z,14.20
2019-04-30T20:08:49.528Z,12.90
2019-04-30T20:11:16.707Z,13.30
2019-04-30T20:13:45.369Z,13.40
2019-04-30T20:16:32.442Z,13.30
2019-04-30T20:21:48.776Z,13.00
2019-04-30T20:24:13.804Z,13.30
2019-04-30T20:26:44.012Z,13.30
2019-04-30T20:29:11.496Z,13.30
2019-04-30T20:31:38.813Z,13.30
2019-04-30T20:34:09.234Z,13.60
2019-04-30T20:36:36.564Z,13.30
2019-04-30T20:39:25.000Z,13.30
2019-04-30T20:41:53.161Z,13.40
2019-04-30T20:44:20.623Z,13.40
2019-04-30T20:46:49.105Z,13.50
2019-04-30T20:49:19.362Z,13.30
2019-04-30T20:51:53.449Z,14.30
2019-04-30T20:54:15.652Z,13.20
2019-04-30T20:56:46.181Z,13.20
2019-04-30T20:59:15.538Z,13.20
2019-04-30T21:01:43.085Z,12.60
2019-04-30T21:04:10.094Z,13.10
2019-04-30T21:06:39.444Z,12.30
2019-04-30T21:09:06.280Z,13.20
2019-04-30T21:11:33.729Z,13.20
2019-04-30T21:14:20.475Z,12.90
2019-04-30T21:16:48.338Z,12.70
2019-04-30T21:19:15.769Z,13.10
2019-04-30T21:21:42.916Z,13.10
2019-04-30T21:24:10.237Z,13.10
2019-04-30T21:26:37.559Z,13.10
2019-04-30T21:29:11.109Z,13.00
2019-04-30T21:31:59.721Z,13.00
2019-04-30T21:35:01.866Z,13.00
2019-04-30T21:37:49.016Z,13.10
2019-04-30T21:40:15.954Z,12.60
2019-04-30T21:42:42.975Z,13.00
2019-04-30T21:45:10.524Z,13.00
2019-04-30T21:47:37.562Z,13.00
2019-04-30T21:50:04.805Z,14.10
2019-04-30T21:52:51.408Z,12.80
2019-04-30T21:55:19.811Z,12.10
2019-04-30T21:58:06.807Z,12.90
2019-04-30T22:00:51.752Z,12.10
2019-04-30T22:03:19.707Z,13.00
2019-04-30T22:05:47.265Z,13.50
2019-04-30T22:08:14.866Z,13.60
2019-04-30T22:11:01.513Z,12.90
2019-04-30T22:13:30.167Z,12.90
2019-04-30T22:15:57.526Z,12.90
2019-04-30T22:18:24.760Z,12.90
2019-04-30T22:20:52.146Z,12.90
2019-04-30T22:23:19.630Z,13.90
2019-04-30T22:25:46.791Z,12.90
2019-04-30T22:28:14.087Z,12.90
2019-04-30T22:30:41.723Z,13.20
2019-04-30T22:33:10.825Z,12.80
2019-04-30T22:35:47.876Z,12.40
2019-04-30T22:38:39.118Z,12.60
2019-04-30T22:41:08.722Z,12.10
2019-04-30T22:43:35.989Z,12.90
2019-04-30T22:46:09.739Z,12.80
2019-04-30T22:48:37.382Z,13.10
2019-04-30T22:51:04.430Z,12.80
2019-04-30T22:53:32.017Z,13.20
2019-04-30T22:55:59.222Z,12.80
2019-04-30T22:58:26.336Z,12.70
2019-04-30T23:00:59.779Z,13.40
2019-04-30T23:03:31.555Z,13.20
2019-04-30T23:05:58.707Z,13.10
2019-04-30T23:08:26.319Z,12.80
2019-04-30T23:10:53.466Z,12.80
2019-04-30T23:13:20.930Z,13.10
2019-04-30T23:15:49.852Z,12.80
2019-04-30T23:18:17.139Z,12.70
2019-04-30T23:20:44.323Z,12.70
2019-04-30T23:23:11.863Z,13.20
2019-04-30T23:25:39.262Z,13.10
2019-04-30T23:28:06.616Z,12.80
2019-04-30T23:30:34.197Z,12.80
2019-04-30T23:33:01.180Z,13.60
2019-04-30T23:35:28.320Z,14.00
2019-04-30T23:37:56.262Z,12.70
2019-04-30T23:40:47.175Z,12.60
2019-04-30T23:43:14.359Z,12.30
2019-04-30T23:45:41.599Z,13.10
2019-04-30T23:48:16.125Z,12.60
2019-04-30T23:50:43.679Z,12.10
2019-04-30T23:53:11.079Z,12.40
2019-04-30T23:55:38.531Z,13.00
2019-04-30T23:58:05.960Z,12.70
